Time;durP1;ratioP1;P1;durP2;ratioP2;P2;SDS_P1;SDS_P2;PMS_P1;PMS_P2;Temp;Humidity;BMP_temperature;BMP_pressure;BME280_temperature;BME280_humidity;BME280_pressure;Samples;Min_cycle;Max_cycle;Signal;HPM_P1;HPM_P2
2020/12/05 00:01:37;;;;;;;3.35;3.05;;;8.20;99.90;;;;;;5130571;27;20211;-76
2020/12/05 00:04:04;;;;;;;3.88;3.47;;;8.20;99.90;;;;;;5131186;27;20653;-76
2020/12/05 00:06:30;;;;;;;5.07;4.57;;;8.20;99.90;;;;;;5120346;27;20536;-76
2020/12/05 00:08:56;;;;;;;3.95;3.65;;;8.20;99.90;;;;;;5120646;27;20193;-76
2020/12/05 00:11:26;;;;;;;5.43;4.25;;;8.10;99.90;;;;;;5126079;27;20195;-74
2020/12/05 00:13:52;;;;;;;4.70;3.95;;;8.20;99.90;;;;;;5128950;27;20224;-75
2020/12/05 00:16:18;;;;;;;4.65;3.60;;;8.10;99.90;;;;;;5120637;27;20644;-75
2020/12/05 00:18:47;;;;;;;6.63;4.00;;;8.20;99.90;;;;;;5130483;27;20218;-76
2020/12/05 00:21:16;;;;;;;4.22;3.83;;;8.20;99.90;;;;;;5119290;27;20196;-76
2020/12/05 00:23:42;;;;;;;5.20;4.60;;;8.10;99.90;;;;;;5127687;27;20185;-75
2020/12/05 00:26:09;;;;;;;7.05;4.38;;;8.10;99.90;;;;;;5120199;27;20199;-75
2020/12/05 00:28:35;;;;;;;5.57;4.13;;;8.10;99.90;;;;;;5116408;27;20845;-75
2020/12/05 00:31:01;;;;;;;5.72;4.70;;;8.10;99.90;;;;;;5120604;27;20646;-75
2020/12/05 00:33:28;;;;;;;4.78;4.18;;;8.10;99.90;;;;;;5130103;27;20209;-75
2020/12/05 00:35:55;;;;;;;4.20;3.80;;;8.10;99.90;;;;;;5119561;27;20208;-75
2020/12/05 00:38:21;;;;;;;5.18;4.65;;;8.10;99.90;;;;;;5122163;27;20250;-75
2020/12/05 00:40:47;;;;;;;5.55;4.10;;;8.10;99.90;;;;;;5135681;27;20240;-75
2020/12/05 00:43:13;;;;;;;4.35;3.95;;;8.10;99.90;;;;;;5131605;27;20650;-75
2020/12/05 00:45:40;;;;;;;4.80;4.30;;;8.20;99.90;;;;;;5115299;28;20197;-75
2020/12/05 00:48:06;;;;;;;5.43;4.30;;;8.10;99.90;;;;;;5116676;27;20193;-75
2020/12/05 00:50:32;;;;;;;5.28;4.78;;;8.10;99.90;;;;;;5120672;27;20197;-75
2020/12/05 00:52:59;;;;;;;4.57;3.97;;;8.10;99.90;;;;;;5114739;27;20212;-75
2020/12/05 00:55:25;;;;;;;5.00;4.55;;;8.10;99.90;;;;;;5115674;27;20197;-75
2020/12/05 00:57:52;;;;;;;6.82;4.53;;;8.10;99.90;;;;;;5116771;27;20192;-75
2020/12/05 01:00:18;;;;;;;5.30;4.43;;;8.10;99.90;;;;;;5133411;27;20196;-75
2020/12/05 01:02:45;;;;;;;4.22;3.75;;;8.10;99.90;;;;;;5115008;28;20196;-75
2020/12/05 01:05:11;;;;;;;6.75;5.28;;;8.10;99.90;;;;;;5123351;27;20211;-75
2020/12/05 01:07:38;;;;;;;4.55;4.15;;;8.10;99.90;;;;;;5134800;27;20192;-75
2020/12/05 01:10:06;;;;;;;5.63;4.45;;;8.20;99.90;;;;;;5114856;27;20213;-75
2020/12/05 01:12:33;;;;;;;4.53;4.10;;;8.20;99.90;;;;;;5132135;27;20208;-76
2020/12/05 01:15:01;;;;;;;4.32;3.85;;;8.20;99.90;;;;;;5117304;27;20212;-75
2020/12/05 01:17:28;;;;;;;4.85;4.35;;;8.20;99.90;;;;;;5121959;27;20820;-75
2020/12/05 01:19:56;;;;;;;5.80;4.90;;;8.10;99.90;;;;;;5116037;27;20189;-75
2020/12/05 01:22:22;;;;;;;5.88;4.93;;;8.10;99.90;;;;;;5114515;28;20284;-75
2020/12/05 01:24:49;;;;;;;6.70;4.90;;;8.10;99.90;;;;;;5131643;27;20196;-75
2020/12/05 01:27:16;;;;;;;5.18;4.63;;;8.10;99.90;;;;;;5126426;27;20197;-75
2020/12/05 01:29:43;;;;;;;5.18;4.68;;;8.10;99.90;;;;;;5120306;27;20199;-75
2020/12/05 01:32:09;;;;;;;7.10;4.88;;;8.10;99.90;;;;;;5128474;27;20531;-75
2020/12/05 01:34:35;;;;;;;5.80;4.63;;;8.10;99.90;;;;;;5118139;27;20656;-75
2020/12/05 01:37:01;;;;;;;5.95;4.95;;;8.10;99.90;;;;;;5115153;27;20193;-75
2020/12/05 01:39:28;;;;;;;5.13;4.57;;;8.20;99.90;;;;;;5123926;27;20224;-75
2020/12/05 01:41:54;;;;;;;8.70;5.50;;;8.20;99.90;;;;;;5114311;27;20205;-75
2020/12/05 01:44:21;;;;;;;6.00;4.95;;;8.20;99.90;;;;;;5125921;27;20193;-74
2020/12/05 01:46:48;;;;;;;4.63;4.22;;;8.20;99.90;;;;;;5118560;27;20200;-76
2020/12/05 01:49:17;;;;;;;5.78;5.22;;;8.20;99.90;;;;;;5126027;27;20204;-75
2020/12/05 01:51:44;;;;;;;5.15;4.18;;;8.20;99.90;;;;;;5124639;27;20203;-76
2020/12/05 01:54:11;;;;;;;6.32;5.28;;;8.20;99.90;;;;;;5121424;27;20235;-76
2020/12/05 01:56:38;;;;;;;4.47;4.07;;;8.20;99.90;;;;;;5116739;27;20204;-76
2020/12/05 01:59:05;;;;;;;6.60;5.28;;;8.10;99.90;;;;;;5115832;27;20197;-76
2020/12/05 02:01:34;;;;;;;5.78;4.93;;;8.10;99.90;;;;;;5124293;27;20199;-76
2020/12/05 02:04:01;;;;;;;4.40;4.00;;;8.10;99.90;;;;;;5121283;27;20185;-76
2020/12/05 02:06:42;;;;;;;5.78;5.10;;;8.10;99.90;;;;;;5113483;27;20253;-76
2020/12/05 02:09:14;;;;;;;5.03;3.97;;;8.10;99.90;;;;;;5118912;27;20197;-76
2020/12/05 02:11:43;;;;;;;6.35;4.45;;;8.10;99.90;;;;;;5113207;28;20285;-77
2020/12/05 02:14:11;;;;;;;4.57;4.18;;;8.10;99.90;;;;;;5116247;27;20217;-76
2020/12/05 02:16:39;;;;;;;5.53;4.90;;;8.10;99.90;;;;;;5114965;27;20197;-76
2020/12/05 02:19:09;;;;;;;4.63;4.20;;;8.10;99.90;;;;;;5121236;27;20242;-76
2020/12/05 02:21:40;;;;;;;4.82;4.43;;;8.10;99.90;;;;;;5131788;27;20635;-76
2020/12/05 02:24:07;;;;;;;4.80;4.25;;;8.10;99.90;;;;;;5132823;27;20210;-76
2020/12/05 02:26:33;;;;;;;6.53;4.90;;;8.10;99.90;;;;;;5130981;27;20199;-75
2020/12/05 02:28:59;;;;;;;5.65;3.65;;;8.10;99.90;;;;;;5122773;27;20184;-76
2020/12/05 02:31:27;;;;;;;5.50;4.57;;;8.10;99.90;;;;;;5116276;27;20195;-77
2020/12/05 02:33:53;;;;;;;5.20;4.43;;;8.10;99.90;;;;;;5133132;27;20201;-76
2020/12/05 02:36:19;;;;;;;5.15;4.65;;;8.10;99.90;;;;;;5132119;27;20200;-78
2020/12/05 02:38:55;;;;;;;5.22;4.72;;;8.10;99.90;;;;;;5118766;27;20231;-77
2020/12/05 02:41:23;;;;;;;6.28;5.13;;;8.10;99.90;;;;;;5113657;27;20195;-76
2020/12/05 02:43:50;;;;;;;4.75;4.35;;;8.10;99.90;;;;;;5125254;27;20193;-76
2020/12/05 02:46:16;;;;;;;5.03;4.53;;;8.10;99.90;;;;;;5114728;27;20188;-76
2020/12/05 02:48:42;;;;;;;5.22;4.60;;;8.10;99.90;;;;;;5123364;27;20201;-76
2020/12/05 02:51:08;;;;;;;5.05;4.15;;;8.10;99.90;;;;;;5112464;28;20207;-77
2020/12/05 02:53:35;;;;;;;5.10;4.63;;;8.10;99.90;;;;;;5112693;28;20221;-77
2020/12/05 02:56:01;;;;;;;4.60;4.15;;;8.10;99.90;;;;;;5111524;28;20200;-76
2020/12/05 02:58:28;;;;;;;5.15;4.57;;;8.10;99.90;;;;;;5111236;28;20197;-76
2020/12/05 03:00:54;;;;;;;5.65;4.80;;;8.00;99.90;;;;;;5116394;27;20203;-76
2020/12/05 03:03:20;;;;;;;5.15;4.55;;;8.10;99.90;;;;;;5133257;27;20196;-76
2020/12/05 03:05:47;;;;;;;5.28;4.47;;;8.10;99.90;;;;;;5131127;27;20213;-76
2020/12/05 03:08:13;;;;;;;6.03;4.40;;;8.10;99.90;;;;;;5127639;27;20230;-75
2020/12/05 03:10:39;;;;;;;4.88;4.43;;;8.10;99.90;;;;;;5112914;27;20199;-77
2020/12/05 03:13:05;;;;;;;4.65;4.25;;;8.10;99.90;;;;;;5120220;27;20197;-75
2020/12/05 03:15:33;;;;;;;5.28;4.78;;;8.10;99.90;;;;;;5124752;27;20207;-76
2020/12/05 03:17:59;;;;;;;5.95;5.40;;;8.20;99.90;;;;;;5129202;27;20199;-76
2020/12/05 03:20:25;;;;;;;5.53;5.03;;;8.20;99.90;;;;;;5129745;27;20206;-76
2020/12/05 03:22:51;;;;;;;5.00;3.72;;;8.10;99.90;;;;;;5125634;27;20196;-76
2020/12/05 03:25:17;;;;;;;5.18;4.57;;;8.20;99.90;;;;;;5112325;27;20189;-76
2020/12/05 03:27:44;;;;;;;4.95;3.75;;;8.20;99.90;;;;;;5117993;28;20196;-77
2020/12/05 03:30:10;;;;;;;4.43;4.03;;;8.20;99.90;;;;;;5116832;28;20277;-77
2020/12/05 03:32:37;;;;;;;4.65;4.25;;;8.20;99.90;;;;;;5117371;27;20196;-78
2020/12/05 03:35:03;;;;;;;5.85;5.20;;;8.20;99.90;;;;;;5120764;27;20593;-76
2020/12/05 03:37:30;;;;;;;5.28;4.78;;;8.20;99.90;;;;;;5136806;27;20635;-78
2020/12/05 03:39:56;;;;;;;6.07;4.45;;;8.20;99.90;;;;;;5131274;27;20228;-78
2020/12/05 03:42:22;;;;;;;5.15;4.65;;;8.20;99.90;;;;;;5129157;27;20200;-77
2020/12/05 03:44:48;;;;;;;4.90;4.40;;;8.20;99.90;;;;;;5116758;27;20184;-77
2020/12/05 03:47:15;;;;;;;4.70;4.30;;;8.20;99.90;;;;;;5125683;27;20200;-77
2020/12/05 03:49:42;;;;;;;4.47;4.07;;;8.20;99.90;;;;;;5123808;27;20197;-77
2020/12/05 03:52:08;;;;;;;4.97;4.00;;;8.10;99.90;;;;;;5135029;27;20199;-77
2020/12/05 03:54:34;;;;;;;4.53;4.13;;;8.10;99.90;;;;;;5123363;27;20216;-77
2020/12/05 03:57:01;;;;;;;5.78;5.13;;;8.20;99.90;;;;;;5121360;27;20188;-77
2020/12/05 03:59:27;;;;;;;6.03;4.32;;;8.20;99.90;;;;;;5115943;28;20211;-77
2020/12/05 04:01:54;;;;;;;3.80;3.40;;;8.20;99.90;;;;;;5115453;28;20199;-77
2020/12/05 04:04:20;;;;;;;4.45;4.05;;;8.20;99.90;;;;;;5116000;27;20197;-77
2020/12/05 04:06:47;;;;;;;4.35;3.95;;;8.20;99.90;;;;;;5128972;27;20197;-77
2020/12/05 04:09:14;;;;;;;6.18;4.50;;;8.20;99.90;;;;;;5116272;28;20567;-77
2020/12/05 04:11:40;;;;;;;4.53;4.10;;;8.20;99.90;;;;;;5116284;27;20220;-76
2020/12/05 04:14:07;;;;;;;8.85;4.45;;;8.20;99.90;;;;;;5126752;27;20670;-76
2020/12/05 04:16:33;;;;;;;5.75;5.25;;;8.10;99.90;;;;;;5132743;27;20191;-76
2020/12/05 04:19:00;;;;;;;4.18;3.85;;;8.10;99.90;;;;;;5133152;27;20195;-75
2020/12/05 04:21:27;;;;;;;6.75;4.85;;;8.20;99.90;;;;;;5119117;27;20602;-76
2020/12/05 04:23:54;;;;;;;5.22;4.70;;;8.20;99.90;;;;;;5117941;27;20188;-76
2020/12/05 04:26:21;;;;;;;4.95;4.43;;;8.20;99.90;;;;;;5131653;27;20196;-76
2020/12/05 04:28:47;;;;;;;4.80;4.32;;;8.20;99.90;;;;;;5134360;27;20199;-76
2020/12/05 04:31:14;;;;;;;5.43;4.88;;;8.10;99.90;;;;;;5129574;27;20193;-76
2020/12/05 04:33:40;;;;;;;5.43;4.82;;;8.20;99.90;;;;;;5116313;27;20200;-75
2020/12/05 04:36:06;;;;;;;4.72;4.30;;;8.10;99.90;;;;;;5115679;27;20193;-76
2020/12/05 04:38:33;;;;;;;5.10;4.60;;;8.10;99.90;;;;;;5124023;27;20228;-76
2020/12/05 04:41:01;;;;;;;5.63;4.55;;;8.10;99.90;;;;;;5135888;27;20192;-75
2020/12/05 04:43:28;;;;;;;5.05;4.00;;;8.10;99.90;;;;;;5125373;27;20193;-75
2020/12/05 04:45:56;;;;;;;5.25;3.95;;;8.20;99.90;;;;;;5120277;27;20199;-76
2020/12/05 04:48:22;;;;;;;5.38;4.90;;;8.10;99.90;;;;;;5126876;27;20189;-77
2020/12/05 04:50:49;;;;;;;4.18;3.85;;;8.10;99.90;;;;;;5114742;27;20189;-79
2020/12/05 04:53:18;;;;;;;4.00;3.70;;;8.10;99.90;;;;;;5115517;27;20188;-79
2020/12/05 04:55:45;;;;;;;4.43;3.90;;;8.10;99.90;;;;;;5118717;27;20230;-79
2020/12/05 04:58:20;;;;;;;4.43;4.03;;;8.10;99.90;;;;;;5127496;27;20200;-78
2020/12/05 05:00:50;;;;;;;5.10;4.60;;;8.20;99.90;;;;;;5114802;27;20531;-78
2020/12/05 05:03:20;;;;;;;4.60;4.20;;;8.20;99.90;;;;;;5116813;27;20204;-75
2020/12/05 05:05:46;;;;;;;6.05;4.35;;;8.20;99.90;;;;;;5123709;27;20199;-77
2020/12/05 05:08:13;;;;;;;4.50;4.10;;;8.20;99.90;;;;;;5115190;27;20220;-77
2020/12/05 05:10:39;;;;;;;4.10;3.70;;;8.20;99.90;;;;;;5114947;28;20510;-76
2020/12/05 05:13:13;;;;;;;4.40;3.85;;;8.20;99.90;;;;;;5114822;28;20670;-77
2020/12/05 05:15:41;;;;;;;4.82;4.43;;;8.20;99.90;;;;;;5116097;27;20217;-76
2020/12/05 05:18:08;;;;;;;4.82;4.30;;;8.20;99.90;;;;;;5116947;27;20203;-77
2020/12/05 05:20:38;;;;;;;3.67;3.38;;;8.10;99.90;;;;;;5133042;27;20193;-77
2020/12/05 05:23:13;;;;;;;4.50;4.10;;;8.10;99.90;;;;;;5128666;27;20195;-77
2020/12/05 05:25:50;;;;;;;4.53;4.00;;;8.10;99.90;;;;;;5131857;27;20184;-77
2020/12/05 05:28:20;;;;;;;5.57;4.45;;;8.10;99.90;;;;;;5115728;27;20203;-77
2020/12/05 05:31:01;;;;;;;5.93;5.15;;;8.10;99.90;;;;;;5114475;27;20280;-77
2020/12/05 05:33:37;;;;;;;4.63;4.13;;;8.20;99.90;;;;;;5114024;27;20283;-77
2020/12/05 05:36:15;;;;;;;5.10;4.35;;;8.20;99.90;;;;;;5119725;27;20187;-77
2020/12/05 05:38:42;;;;;;;3.60;3.30;;;8.20;99.90;;;;;;5126900;27;20228;-77
2020/12/05 05:41:15;;;;;;;6.70;4.53;;;8.20;99.90;;;;;;5115295;27;20733;-76
2020/12/05 05:43:57;;;;;;;4.28;3.88;;;8.10;99.90;;;;;;5115421;27;20189;-76
2020/12/05 05:46:27;;;;;;;5.72;4.50;;;8.10;99.90;;;;;;5119570;27;20202;-76
2020/12/05 05:48:53;;;;;;;4.30;3.90;;;8.20;99.90;;;;;;5126889;27;20200;-77
2020/12/05 05:51:35;;;;;;;4.78;3.88;;;8.20;99.90;;;;;;5134422;27;20200;-75
2020/12/05 05:54:19;;;;;;;4.53;4.03;;;8.20;99.90;;;;;;5117563;27;20395;-76
2020/12/05 05:57:04;;;;;;;5.00;3.85;;;8.20;99.90;;;;;;5128966;27;20184;-77
2020/12/05 05:59:32;;;;;;;5.32;4.40;;;8.20;99.90;;;;;;5122294;27;20200;-75
2020/12/05 06:02:00;;;;;;;4.35;3.90;;;8.20;99.90;;;;;;5115052;27;20196;-78
2020/12/05 06:04:32;;;;;;;8.32;5.05;;;8.20;99.90;;;;;;5115470;27;20200;-77
2020/12/05 06:07:00;;;;;;;5.00;4.18;;;8.20;99.90;;;;;;5113455;28;20216;-78
2020/12/05 06:09:43;;;;;;;4.60;4.00;;;8.20;99.90;;;;;;5112646;28;20200;-76
2020/12/05 06:12:11;;;;;;;5.93;4.28;;;8.10;99.90;;;;;;5113467;28;20204;-75
2020/12/05 06:14:39;;;;;;;6.07;5.07;;;8.20;99.90;;;;;;5113238;28;20220;-76
2020/12/05 06:17:08;;;;;;;4.60;4.20;;;8.20;99.90;;;;;;5112839;27;20196;-76
2020/12/05 06:19:35;;;;;;;4.32;3.50;;;8.20;99.90;;;;;;5132910;27;20188;-75
2020/12/05 06:22:01;;;;;;;4.55;4.20;;;8.20;99.90;;;;;;5126194;27;20193;-77
2020/12/05 06:24:39;;;;;;;5.13;4.70;;;8.20;99.90;;;;;;5126584;27;20194;-77
2020/12/05 06:27:08;;;;;;;4.25;3.80;;;8.20;99.90;;;;;;5133776;27;20696;-76
2020/12/05 06:29:37;;;;;;;4.68;4.28;;;8.20;99.90;;;;;;5131773;27;20198;-78
2020/12/05 06:32:03;;;;;;;6.07;3.90;;;8.20;99.90;;;;;;5133505;27;20200;-77
2020/12/05 06:34:42;;;;;;;5.60;4.40;;;8.20;99.90;;;;;;5121465;27;20212;-78
2020/12/05 06:37:10;;;;;;;3.60;3.30;;;8.20;99.90;;;;;;5114465;27;20196;-76
2020/12/05 06:39:37;;;;;;;7.78;4.28;;;8.20;99.90;;;;;;5131757;27;20232;-76
2020/12/05 06:42:04;;;;;;;4.38;3.92;;;8.20;99.90;;;;;;5114162;27;20200;-79
2020/12/05 06:44:37;;;;;;;5.47;3.85;;;8.20;99.90;;;;;;5114074;27;20616;-78
2020/12/05 06:47:08;;;;;;;5.63;4.45;;;8.30;99.90;;;;;;5112697;28;20227;-78
2020/12/05 06:49:49;;;;;;;3.80;3.50;;;8.20;99.90;;;;;;5126509;27;20208;-78
2020/12/05 06:52:35;;;;;;;5.63;4.50;;;8.20;99.90;;;;;;5112031;28;20215;-77
2020/12/05 06:55:08;;;;;;;8.95;4.45;;;8.20;99.90;;;;;;5112807;28;20223;-77
2020/12/05 06:57:36;;;;;;;5.43;4.93;;;8.20;99.90;;;;;;5114256;27;20200;-77
2020/12/05 07:00:23;;;;;;;5.68;4.55;;;8.20;99.90;;;;;;5120249;27;20200;-76
2020/12/05 07:03:00;;;;;;;5.03;4.43;;;8.10;99.90;;;;;;5112661;28;20211;-77
2020/12/05 07:05:36;;;;;;;5.35;4.50;;;8.20;99.90;;;;;;5122447;27;20202;-77
2020/12/05 07:08:18;;;;;;;5.72;4.15;;;8.20;99.90;;;;;;5111946;28;20200;-77
2020/12/05 07:10:46;;;;;;;6.38;5.05;;;8.20;99.90;;;;;;5112218;28;20201;-77
2020/12/05 07:13:16;;;;;;;5.28;4.78;;;8.20;99.90;;;;;;5112152;28;20192;-76
2020/12/05 07:15:43;;;;;;;5.75;4.80;;;8.20;99.90;;;;;;5111999;28;20215;-77
2020/12/05 07:18:18;;;;;;;5.05;4.05;;;8.20;99.90;;;;;;5111950;28;20192;-77
2020/12/05 07:20:45;;;;;;;5.30;4.68;;;8.20;99.90;;;;;;5119896;27;20195;-77
2020/12/05 07:23:12;;;;;;;4.97;4.57;;;8.10;99.90;;;;;;5132323;27;20211;-77
2020/12/05 07:25:38;;;;;;;5.13;4.63;;;8.20;99.90;;;;;;5132767;27;20188;-76
2020/12/05 07:28:04;;;;;;;4.78;3.80;;;8.20;99.90;;;;;;5116203;27;20209;-74
2020/12/05 07:30:31;;;;;;;6.32;5.10;;;8.20;99.90;;;;;;5115996;27;20199;-77
2020/12/05 07:32:57;;;;;;;6.97;5.45;;;8.20;99.90;;;;;;5112267;28;20207;-78
2020/12/05 07:35:23;;;;;;;6.65;4.28;;;8.20;99.90;;;;;;5117374;28;20204;-79
2020/12/05 07:37:50;;;;;;;5.45;4.50;;;8.20;99.90;;;;;;5126765;27;20197;-77
2020/12/05 07:40:27;;;;;;;4.65;4.15;;;8.20;99.90;;;;;;5121856;28;20694;-77
2020/12/05 07:42:53;;;;;;;5.38;4.38;;;8.20;99.90;;;;;;5119879;27;20636;-77
2020/12/05 07:45:20;;;;;;;6.47;5.55;;;8.10;99.90;;;;;;5137857;27;20196;-77
2020/12/05 07:47:46;;;;;;;4.93;4.40;;;8.20;99.90;;;;;;5124089;27;20200;-77
2020/12/05 07:50:12;;;;;;;5.10;4.60;;;8.10;99.90;;;;;;5123130;27;20200;-77
2020/12/05 07:52:39;;;;;;;5.63;5.10;;;8.10;99.90;;;;;;5126471;27;20532;-77
2020/12/05 07:55:07;;;;;;;7.47;5.13;;;8.20;99.90;;;;;;5112069;28;20205;-77
2020/12/05 07:57:36;;;;;;;7.47;5.47;;;8.20;99.90;;;;;;5112623;28;20211;-77
2020/12/05 08:00:06;;;;;;;7.15;5.57;;;8.10;99.90;;;;;;5114843;28;20185;-77
2020/12/05 08:02:47;;;;;;;6.10;5.03;;;8.10;99.90;;;;;;5116332;28;20204;-77
2020/12/05 08:05:33;;;;;;;9.95;5.50;;;8.10;99.90;;;;;;5120101;28;20642;-77
2020/12/05 08:08:02;;;;;;;5.47;4.60;;;8.10;99.90;;;;;;5125432;27;20188;-77
2020/12/05 08:10:31;;;;;;;7.28;6.25;;;8.10;99.90;;;;;;5112806;28;20211;-77
2020/12/05 08:13:20;;;;;;;6.70;5.10;;;8.20;99.90;;;;;;5115719;28;20519;-76
2020/12/05 08:15:49;;;;;;;5.80;5.20;;;8.10;99.90;;;;;;5130570;27;20216;-77
2020/12/05 08:18:18;;;;;;;6.30;5.10;;;8.20;99.90;;;;;;5118967;27;20195;-77
2020/12/05 08:20:45;;;;;;;5.63;5.05;;;8.20;99.90;;;;;;5134155;27;20196;-76
2020/12/05 08:23:26;;;;;;;8.15;5.72;;;8.10;99.90;;;;;;5133325;27;20292;-77
2020/12/05 08:25:58;;;;;;;6.80;4.90;;;8.20;99.90;;;;;;5114943;28;20177;-76
2020/12/05 08:28:26;;;;;;;6.60;5.60;;;8.20;99.90;;;;;;5114394;28;20197;-76
2020/12/05 08:30:54;;;;;;;5.22;4.72;;;8.10;99.90;;;;;;5115178;28;20188;-77
2020/12/05 08:33:20;;;;;;;7.75;5.60;;;8.10;99.90;;;;;;5114473;28;20193;-76
2020/12/05 08:35:46;;;;;;;6.60;5.72;;;8.10;99.90;;;;;;5119963;27;20207;-76
2020/12/05 08:38:20;;;;;;;7.10;5.40;;;8.10;99.90;;;;;;5132700;27;20196;-76
2020/12/05 08:40:46;;;;;;;6.50;5.47;;;8.20;99.90;;;;;;5135113;27;20229;-76
2020/12/05 08:43:13;;;;;;;6.47;5.35;;;8.20;99.90;;;;;;5119624;27;20201;-76
2020/12/05 08:45:40;;;;;;;5.82;4.63;;;8.20;99.90;;;;;;5119042;27;20192;-76
2020/12/05 08:48:17;;;;;;;6.70;5.72;;;8.20;99.90;;;;;;5128674;27;20193;-76
2020/12/05 08:50:44;;;;;;;6.78;5.10;;;8.20;99.90;;;;;;5121238;27;20490;-76
2020/12/05 08:53:13;;;;;;;7.50;5.35;;;8.20;99.90;;;;;;5125114;27;20196;-76
2020/12/05 08:55:45;;;;;;;7.32;5.80;;;8.20;99.90;;;;;;5125274;27;20216;-75
2020/12/05 08:58:13;;;;;;;6.28;5.38;;;8.20;99.90;;;;;;5119431;27;20609;-75
2020/12/05 09:00:39;;;;;;;5.55;4.75;;;8.20;99.90;;;;;;5128105;27;20690;-75
2020/12/05 09:03:17;;;;;;;6.88;4.60;;;8.30;99.90;;;;;;5121602;27;20197;-75
2020/12/05 09:05:47;;;;;;;6.65;5.40;;;8.20;99.90;;;;;;5124470;27;20192;-74
2020/12/05 09:08:20;;;;;;;6.63;5.82;;;8.20;99.90;;;;;;5115381;27;20208;-78
2020/12/05 09:10:47;;;;;;;6.80;5.78;;;8.30;99.90;;;;;;5128214;27;20200;-80
2020/12/05 09:13:15;;;;;;;6.57;5.35;;;8.30;99.90;;;;;;5119818;27;20192;-79
2020/12/05 09:15:56;;;;;;;10.40;5.43;;;8.30;99.90;;;;;;5114604;28;20227;-80
2020/12/05 09:18:22;;;;;;;5.13;4.63;;;8.40;99.90;;;;;;5119567;27;20200;-80
2020/12/05 09:20:49;;;;;;;5.80;4.93;;;8.40;99.90;;;;;;5131514;27;20196;-79
2020/12/05 09:23:15;;;;;;;7.68;5.80;;;8.50;99.90;;;;;;5123712;27;20189;-80
2020/12/05 09:25:41;;;;;;;5.72;5.22;;;8.50;99.90;;;;;;5114745;27;20189;-79
2020/12/05 09:28:09;;;;;;;4.93;4.40;;;8.60;99.90;;;;;;5114087;28;20195;-79
2020/12/05 09:30:37;;;;;;;6.35;4.50;;;8.60;99.90;;;;;;5112995;27;20201;-79
2020/12/05 09:33:09;;;;;;;5.10;4.60;;;8.60;99.90;;;;;;5113018;27;20208;-80
2020/12/05 09:35:35;;;;;;;6.93;4.53;;;8.60;99.90;;;;;;5112633;27;20299;-80
2020/12/05 09:38:02;;;;;;;5.88;4.55;;;8.60;99.90;;;;;;5116066;27;20602;-80
2020/12/05 09:40:30;;;;;;;6.15;5.35;;;8.60;99.90;;;;;;5114220;27;20192;-80
2020/12/05 09:42:56;;;;;;;5.30;4.55;;;8.60;99.90;;;;;;5127827;27;20563;-80
2020/12/05 09:45:23;;;;;;;5.38;4.72;;;8.70;99.90;;;;;;5114323;27;20201;-79
2020/12/05 09:47:50;;;;;;;5.82;4.88;;;8.60;99.90;;;;;;5130756;27;20533;-79
2020/12/05 09:50:16;;;;;;;5.32;4.20;;;8.60;99.90;;;;;;5133980;27;20209;-80
2020/12/05 09:52:43;;;;;;;6.05;4.78;;;8.60;99.90;;;;;;5114567;27;20200;-80
2020/12/05 09:55:10;;;;;;;8.45;6.65;;;8.60;99.90;;;;;;5114136;27;20227;-79
2020/12/05 09:57:36;;;;;;;6.40;4.72;;;8.60;99.90;;;;;;5130552;27;20202;-79
2020/12/05 10:00:06;;;;;;;7.10;6.50;;;8.60;99.90;;;;;;5132100;27;20199;-80
2020/12/05 10:02:32;;;;;;;6.80;5.13;;;8.60;99.90;;;;;;5117973;27;20536;-79
2020/12/05 10:05:00;;;;;;;6.18;4.93;;;8.70;99.90;;;;;;5130921;27;20194;-80
2020/12/05 10:07:26;;;;;;;4.90;3.83;;;8.70;99.90;;;;;;5134316;27;20214;-80
2020/12/05 10:09:53;;;;;;;5.70;4.93;;;8.70;99.90;;;;;;5115416;27;20220;-79
2020/12/05 10:12:19;;;;;;;5.05;4.30;;;8.70;99.90;;;;;;5125692;27;20196;-80
2020/12/05 10:14:45;;;;;;;7.10;4.18;;;8.70;99.90;;;;;;5134053;27;20212;-79
2020/12/05 10:17:11;;;;;;;5.57;4.53;;;8.70;99.90;;;;;;5115562;27;20625;-79
2020/12/05 10:19:38;;;;;;;5.55;5.05;;;8.70;99.90;;;;;;5132732;27;20505;-79
2020/12/05 10:22:05;;;;;;;5.72;4.65;;;8.70;99.90;;;;;;5114432;27;20201;-79
2020/12/05 10:24:31;;;;;;;4.90;4.50;;;8.70;99.90;;;;;;5120575;27;20203;-80
2020/12/05 10:26:58;;;;;;;4.80;4.07;;;8.70;99.90;;;;;;5126986;27;20185;-81
2020/12/05 10:29:25;;;;;;;5.53;4.32;;;8.70;99.90;;;;;;5127584;27;20196;-75
2020/12/05 10:31:53;;;;;;;7.07;5.10;;;8.70;99.90;;;;;;5132626;27;20188;-83
2020/12/05 10:34:20;;;;;;;5.22;4.72;;;8.70;99.90;;;;;;5127365;27;20203;-79
2020/12/05 10:36:47;;;;;;;5.88;4.25;;;8.70;99.90;;;;;;5132687;27;20200;-76
2020/12/05 10:39:15;;;;;;;4.03;3.63;;;8.60;99.90;;;;;;5118237;27;20233;-78
2020/12/05 10:41:42;;;;;;;4.72;4.30;;;8.60;99.90;;;;;;5125500;27;20197;-77
2020/12/05 10:44:10;;;;;;;3.50;2.92;;;8.60;99.90;;;;;;5119516;27;20196;-78
2020/12/05 10:46:40;;;;;;;4.95;4.10;;;8.60;99.90;;;;;;5113282;27;20189;-77
2020/12/05 10:49:06;;;;;;;4.72;3.65;;;8.60;99.90;;;;;;5124128;27;20197;-76
2020/12/05 10:51:33;;;;;;;5.43;4.20;;;8.60;99.90;;;;;;5119428;27;20200;-77
2020/12/05 10:53:59;;;;;;;5.80;4.53;;;8.70;99.90;;;;;;5117658;27;20202;-79
2020/12/05 10:56:26;;;;;;;5.15;3.80;;;8.70;99.90;;;;;;5127681;27;20205;-79
2020/12/05 10:58:53;;;;;;;4.63;4.10;;;8.60;99.90;;;;;;5128792;27;20227;-77
2020/12/05 11:01:19;;;;;;;5.65;4.13;;;8.60;99.90;;;;;;5123300;27;20196;-76
2020/12/05 11:03:46;;;;;;;3.90;3.50;;;8.60;99.90;;;;;;5116806;27;20274;-78
2020/12/05 11:06:12;;;;;;;4.88;3.88;;;8.70;99.90;;;;;;5128305;27;20240;-81
2020/12/05 11:08:38;;;;;;;3.78;3.38;;;8.70;99.90;;;;;;5127117;27;20208;-78
2020/12/05 11:11:04;;;;;;;4.25;3.85;;;8.70;99.90;;;;;;5125571;27;20198;-81
2020/12/05 11:13:31;;;;;;;4.40;3.42;;;8.70;99.90;;;;;;5121265;27;20754;-79
2020/12/05 11:15:58;;;;;;;3.53;3.17;;;8.70;99.90;;;;;;5112682;27;20213;-77
2020/12/05 11:18:24;;;;;;;3.55;3.05;;;8.80;99.90;;;;;;5120297;27;20196;-78
2020/12/05 11:20:50;;;;;;;2.78;2.58;;;8.80;99.90;;;;;;5112694;28;20200;-77
2020/12/05 11:23:16;;;;;;;3.35;2.97;;;8.80;99.90;;;;;;5112634;28;20203;-78
2020/12/05 11:25:43;;;;;;;3.05;2.65;;;8.80;99.90;;;;;;5125297;27;20191;-78
2020/12/05 11:28:09;;;;;;;3.35;3.05;;;8.80;99.90;;;;;;5132655;27;20200;-77
2020/12/05 11:30:36;;;;;;;2.80;2.55;;;8.80;99.90;;;;;;5113006;27;20197;-79
2020/12/05 11:33:02;;;;;;;3.70;2.60;;;8.80;99.90;;;;;;5112206;28;20224;-79
2020/12/05 11:35:28;;;;;;;2.75;2.40;;;8.80;99.90;;;;;;5111905;28;20224;-77
2020/12/05 11:37:55;;;;;;;3.78;2.88;;;8.70;99.90;;;;;;5112166;28;20286;-79
2020/12/05 11:40:21;;;;;;;2.55;2.35;;;8.60;99.90;;;;;;5124133;28;20228;-79
2020/12/05 11:42:47;;;;;;;2.75;2.40;;;8.60;99.90;;;;;;5127169;28;20203;-79
2020/12/05 11:45:13;;;;;;;2.40;2.20;;;8.60;99.90;;;;;;5114477;28;20210;-78
2020/12/05 11:47:40;;;;;;;2.60;2.40;;;8.60;99.90;;;;;;5130542;27;20192;-80
2020/12/05 11:50:07;;;;;;;3.55;2.35;;;8.60;99.90;;;;;;5119666;27;20197;-80
2020/12/05 11:52:33;;;;;;;2.20;1.90;;;8.70;99.90;;;;;;5128257;28;20188;-76
2020/12/05 11:54:59;;;;;;;2.05;1.85;;;8.70;99.90;;;;;;5123509;27;20208;-77
2020/12/05 11:57:26;;;;;;;2.60;2.40;;;8.70;99.90;;;;;;5120646;27;20204;-76
2020/12/05 11:59:52;;;;;;;3.05;2.65;;;8.80;99.90;;;;;;5140526;27;20192;-76
2020/12/05 12:02:18;;;;;;;2.22;1.95;;;8.70;99.90;;;;;;5157291;27;20199;-74
2020/12/05 12:04:45;;;;;;;2.10;1.73;;;8.70;99.90;;;;;;5151396;27;20195;-76
2020/12/05 12:07:11;;;;;;;3.00;2.70;;;8.70;99.90;;;;;;5133206;27;20206;-77
2020/12/05 12:09:38;;;;;;;2.33;1.67;;;8.70;99.90;;;;;;5123196;27;20197;-76
2020/12/05 12:12:04;;;;;;;2.20;1.98;;;8.70;99.90;;;;;;5134578;27;20283;-76
2020/12/05 12:14:30;;;;;;;2.63;1.85;;;8.70;99.90;;;;;;5124943;27;20210;-77
2020/12/05 12:16:57;;;;;;;2.40;1.77;;;8.70;99.90;;;;;;5130092;27;20218;-77
2020/12/05 12:19:23;;;;;;;3.20;2.20;;;8.70;99.90;;;;;;5122048;27;20193;-76
2020/12/05 12:21:50;;;;;;;2.40;1.83;;;8.70;99.90;;;;;;5116192;27;20196;-77
2020/12/05 12:24:16;;;;;;;2.40;2.00;;;8.70;99.90;;;;;;5135853;27;20203;-77
2020/12/05 12:26:43;;;;;;;3.83;2.28;;;8.70;99.90;;;;;;5134878;27;20188;-76
2020/12/05 12:29:09;;;;;;;2.00;1.80;;;8.70;99.90;;;;;;5133770;27;20206;-74
2020/12/05 12:31:35;;;;;;;2.25;2.05;;;8.70;99.90;;;;;;5135537;27;20188;-76
2020/12/05 12:34:01;;;;;;;2.55;1.77;;;8.70;99.90;;;;;;5118550;27;20641;-76
2020/12/05 12:36:28;;;;;;;1.98;1.75;;;8.70;99.90;;;;;;5115787;28;20301;-75
2020/12/05 12:38:55;;;;;;;2.60;2.10;;;8.60;99.90;;;;;;5128697;27;20235;-75
2020/12/05 12:41:22;;;;;;;4.88;1.73;;;8.60;99.90;;;;;;5124394;27;20215;-76
2020/12/05 12:43:50;;;;;;;2.08;1.45;;;8.60;99.90;;;;;;5130146;27;20192;-75
2020/12/05 12:46:20;;;;;;;2.00;1.80;;;8.60;99.90;;;;;;5131802;27;20197;-75
2020/12/05 12:48:46;;;;;;;2.60;2.40;;;8.70;99.90;;;;;;5121924;27;20655;-75
2020/12/05 12:51:12;;;;;;;2.38;1.83;;;8.70;99.90;;;;;;5129042;27;20239;-75
2020/12/05 12:53:39;;;;;;;1.50;1.40;;;8.70;99.90;;;;;;5129446;27;20756;-75
2020/12/05 12:56:06;;;;;;;2.33;1.52;;;8.70;99.90;;;;;;5115014;28;20235;-77
2020/12/05 12:58:41;;;;;;;2.08;1.50;;;8.70;99.90;;;;;;5116901;27;20227;-75
2020/12/05 13:01:08;;;;;;;3.45;1.75;;;8.60;99.90;;;;;;5128047;27;20189;-76
2020/12/05 13:03:34;;;;;;;1.90;1.70;;;8.70;99.90;;;;;;5116692;27;20204;-77